sensor_id;sensor_type;location;lat;lon;timestamp;pressure;altitude;pressure_sealevel;temperature;humidity
56681;BME280;42558;52.388;13.390;2023-04-20T00:02:18;101604.26;;;5.21;100.00
56681;BME280;42558;52.388;13.390;2023-04-20T00:04:51;101603.80;;;5.18;100.00
56681;BME280;42558;52.388;13.390;2023-04-20T00:07:21;101605.88;;;5.18;100.00
56681;BME280;42558;52.388;13.390;2023-04-20T00:09:53;101599.37;;;5.17;100.00
56681;BME280;42558;52.388;13.390;2023-04-20T00:12:23;101598.08;;;5.15;100.00
56681;BME280;42558;52.388;13.390;2023-04-20T00:14:53;101602.45;;;5.15;100.00
56681;BME280;42558;52.388;13.390;2023-04-20T00:17:23;101607.97;;;5.14;100.00
56681;BME280;42558;52.388;13.390;2023-04-20T00:19:52;101606.55;;;5.18;100.00
56681;BME280;42558;52.388;13.390;2023-04-20T00:22:22;101604.61;;;5.17;100.00
56681;BME280;42558;52.388;13.390;2023-04-20T00:24:51;101597.95;;;5.16;100.00
56681;BME280;42558;52.388;13.390;2023-04-20T00:27:19;101597.65;;;5.17;100.00
56681;BME280;42558;52.388;13.390;2023-04-20T00:29:47;101595.83;;;5.15;100.00
56681;BME280;42558;52.388;13.390;2023-04-20T00:32:16;101594.86;;;5.14;100.00
56681;BME280;42558;52.388;13.390;2023-04-20T00:34:44;101595.80;;;5.11;100.00
56681;BME280;42558;52.388;13.390;2023-04-20T00:37:13;101597.42;;;5.13;100.00
56681;BME280;42558;52.388;13.390;2023-04-20T00:39:41;101600.38;;;5.09;100.00
56681;BME280;42558;52.388;13.390;2023-04-20T00:42:12;101596.80;;;5.11;100.00
56681;BME280;42558;52.388;13.390;2023-04-20T00:44:48;101594.25;;;5.16;100.00
56681;BME280;42558;52.388;13.390;2023-04-20T00:47:19;101588.70;;;5.20;100.00
56681;BME280;42558;52.388;13.390;2023-04-20T00:49:49;101587.13;;;5.20;100.00
56681;BME280;42558;52.388;13.390;2023-04-20T00:52:20;101584.23;;;5.17;100.00
56681;BME280;42558;52.388;13.390;2023-04-20T00:54:51;101589.52;;;5.15;100.00
56681;BME280;42558;52.388;13.390;2023-04-20T00:57:21;101588.30;;;5.15;100.00
56681;BME280;42558;52.388;13.390;2023-04-20T00:59:52;101589.01;;;5.15;100.00
56681;BME280;42558;52.388;13.390;2023-04-20T01:02:22;101587.33;;;5.09;100.00
56681;BME280;42558;52.388;13.390;2023-04-20T01:04:53;101590.07;;;5.09;100.00
56681;BME280;42558;52.388;13.390;2023-04-20T01:07:23;101587.23;;;5.11;100.00
56681;BME280;42558;52.388;13.390;2023-04-20T01:09:52;101588.02;;;5.13;100.00
56681;BME280;42558;52.388;13.390;2023-04-20T01:12:22;101589.91;;;5.05;100.00
56681;BME280;42558;52.388;13.390;2023-04-20T01:14:52;101587.60;;;5.05;100.00
56681;BME280;42558;52.388;13.390;2023-04-20T01:17:22;101586.88;;;5.01;100.00
56681;BME280;42558;52.388;13.390;2023-04-20T01:19:53;101583.04;;;4.97;100.00
56681;BME280;42558;52.388;13.390;2023-04-20T01:22:22;101582.80;;;4.92;100.00
56681;BME280;42558;52.388;13.390;2023-04-20T01:24:52;101583.57;;;4.86;100.00
56681;BME280;42558;52.388;13.390;2023-04-20T01:27:22;101580.60;;;4.80;100.00
56681;BME280;42558;52.388;13.390;2023-04-20T01:29:52;101584.20;;;4.79;100.00
56681;BME280;42558;52.388;13.390;2023-04-20T01:32:22;101586.12;;;4.78;100.00
56681;BME280;42558;52.388;13.390;2023-04-20T01:34:52;101588.16;;;4.77;100.00
56681;BME280;42558;52.388;13.390;2023-04-20T01:37:22;101587.02;;;4.76;100.00
56681;BME280;42558;52.388;13.390;2023-04-20T01:39:52;101580.48;;;4.77;100.00
56681;BME280;42558;52.388;13.390;2023-04-20T01:42:22;101579.20;;;4.79;100.00
56681;BME280;42558;52.388;13.390;2023-04-20T01:44:52;101571.48;;;4.82;100.00
56681;BME280;42558;52.388;13.390;2023-04-20T01:47:22;101572.46;;;4.77;100.00
56681;BME280;42558;52.388;13.390;2023-04-20T01:49:52;101566.92;;;4.74;100.00
56681;BME280;42558;52.388;13.390;2023-04-20T01:52:21;101571.91;;;4.77;100.00
56681;BME280;42558;52.388;13.390;2023-04-20T01:54:51;101572.29;;;4.81;100.00
56681;BME280;42558;52.388;13.390;2023-04-20T01:57:21;101578.08;;;4.81;100.00
56681;BME280;42558;52.388;13.390;2023-04-20T01:59:51;101579.92;;;4.83;100.00
56681;BME280;42558;52.388;13.390;2023-04-20T02:02:20;101582.13;;;4.86;100.00
56681;BME280;42558;52.388;13.390;2023-04-20T02:04:50;101577.95;;;4.86;100.00
56681;BME280;42558;52.388;13.390;2023-04-20T02:07:21;101575.26;;;4.84;100.00
56681;BME280;42558;52.388;13.390;2023-04-20T02:09:51;101579.65;;;4.85;100.00
56681;BME280;42558;52.388;13.390;2023-04-20T02:12:21;101584.96;;;4.87;100.00
56681;BME280;42558;52.388;13.390;2023-04-20T02:14:51;101584.38;;;4.89;100.00
56681;BME280;42558;52.388;13.390;2023-04-20T02:17:21;101582.05;;;4.87;100.00
56681;BME280;42558;52.388;13.390;2023-04-20T02:19:51;101582.23;;;4.88;100.00
56681;BME280;42558;52.388;13.390;2023-04-20T02:22:20;101582.58;;;4.91;100.00
56681;BME280;42558;52.388;13.390;2023-04-20T02:24:49;101581.11;;;4.93;100.00
56681;BME280;42558;52.388;13.390;2023-04-20T02:27:17;101583.36;;;4.93;100.00
56681;BME280;42558;52.388;13.390;2023-04-20T02:29:46;101584.69;;;4.91;100.00
56681;BME280;42558;52.388;13.390;2023-04-20T02:32:15;101587.55;;;4.89;100.00
56681;BME280;42558;52.388;13.390;2023-04-20T02:34:44;101584.79;;;4.87;100.00
56681;BME280;42558;52.388;13.390;2023-04-20T02:37:12;101581.11;;;4.86;100.00
56681;BME280;42558;52.388;13.390;2023-04-20T02:39:41;101579.42;;;4.84;100.00
56681;BME280;42558;52.388;13.390;2023-04-20T02:42:12;101577.85;;;4.80;100.00
56681;BME280;42558;52.388;13.390;2023-04-20T02:44:46;101580.09;;;4.80;100.00
56681;BME280;42558;52.388;13.390;2023-04-20T02:47:16;101576.77;;;4.80;100.00
56681;BME280;42558;52.388;13.390;2023-04-20T02:49:46;101578.63;;;4.78;100.00
56681;BME280;42558;52.388;13.390;2023-04-20T02:52:16;101582.79;;;4.74;100.00
56681;BME280;42558;52.388;13.390;2023-04-20T02:54:46;101586.86;;;4.73;100.00
56681;BME280;42558;52.388;13.390;2023-04-20T02:57:16;101583.61;;;4.74;100.00
56681;BME280;42558;52.388;13.390;2023-04-20T02:59:45;101583.56;;;4.76;100.00
56681;BME280;42558;52.388;13.390;2023-04-20T03:02:15;101585.52;;;4.74;100.00
56681;BME280;42558;52.388;13.390;2023-04-20T03:04:45;101588.48;;;4.74;100.00
56681;BME280;42558;52.388;13.390;2023-04-20T03:07:16;101592.72;;;4.75;100.00
56681;BME280;42558;52.388;13.390;2023-04-20T03:09:46;101591.02;;;4.79;100.00
56681;BME280;42558;52.388;13.390;2023-04-20T03:12:16;101584.76;;;4.82;100.00
56681;BME280;42558;52.388;13.390;2023-04-20T03:14:47;101584.17;;;4.81;100.00
56681;BME280;42558;52.388;13.390;2023-04-20T03:17:17;101584.86;;;4.81;100.00
56681;BME280;42558;52.388;13.390;2023-04-20T03:19:47;101585.52;;;4.80;100.00
56681;BME280;42558;52.388;13.390;2023-04-20T03:22:17;101578.41;;;4.81;100.00
56681;BME280;42558;52.388;13.390;2023-04-20T03:24:49;101582.98;;;4.82;100.00
56681;BME280;42558;52.388;13.390;2023-04-20T03:35:29;101600.58;;;4.82;100.00
56681;BME280;42558;52.388;13.390;2023-04-20T03:37:59;101597.36;;;4.84;100.00
56681;BME280;42558;52.388;13.390;2023-04-20T03:40:29;101600.11;;;4.83;100.00
56681;BME280;42558;52.388;13.390;2023-04-20T03:42:59;101597.03;;;4.84;100.00
56681;BME280;42558;52.388;13.390;2023-04-20T03:45:29;101601.63;;;4.85;100.00
56681;BME280;42558;52.388;13.390;2023-04-20T03:47:59;101607.76;;;4.86;100.00
56681;BME280;42558;52.388;13.390;2023-04-20T03:50:29;101609.05;;;4.84;100.00
56681;BME280;42558;52.388;13.390;2023-04-20T03:52:59;101602.54;;;4.86;100.00
56681;BME280;42558;52.388;13.390;2023-04-20T03:55:29;101597.34;;;4.87;100.00
56681;BME280;42558;52.388;13.390;2023-04-20T03:57:58;101594.05;;;4.87;100.00
56681;BME280;42558;52.388;13.390;2023-04-20T04:00:28;101591.69;;;4.85;100.00
56681;BME280;42558;52.388;13.390;2023-04-20T04:02:58;101595.70;;;4.86;100.00
56681;BME280;42558;52.388;13.390;2023-04-20T04:05:29;101602.71;;;4.86;100.00
56681;BME280;42558;52.388;13.390;2023-04-20T04:07:59;101599.56;;;4.86;100.00
56681;BME280;42558;52.388;13.390;2023-04-20T04:10:28;101606.83;;;4.81;100.00
56681;BME280;42558;52.388;13.390;2023-04-20T04:12:58;101611.65;;;4.84;100.00
56681;BME280;42558;52.388;13.390;2023-04-20T04:15:28;101611.92;;;4.82;100.00
56681;BME280;42558;52.388;13.390;2023-04-20T04:17:58;101617.04;;;4.83;100.00
56681;BME280;42558;52.388;13.390;2023-04-20T04:20:28;101619.40;;;4.85;100.00
56681;BME280;42558;52.388;13.390;2023-04-20T04:22:57;101618.73;;;4.86;100.00
56681;BME280;42558;52.388;13.390;2023-04-20T04:25:27;101621.42;;;4.74;100.00
56681;BME280;42558;52.388;13.390;2023-04-20T04:27:58;101622.83;;;4.74;100.00
56681;BME280;42558;52.388;13.390;2023-04-20T04:30:28;101621.13;;;4.81;100.00
56681;BME280;42558;52.388;13.390;2023-04-20T04:32:58;101623.77;;;4.82;100.00
56681;BME280;42558;52.388;13.390;2023-04-20T04:35:28;101622.30;;;4.81;100.00
56681;BME280;42558;52.388;13.390;2023-04-20T04:37:59;101622.08;;;4.83;100.00
56681;BME280;42558;52.388;13.390;2023-04-20T04:40:29;101624.89;;;4.84;100.00
56681;BME280;42558;52.388;13.390;2023-04-20T04:43:01;101627.91;;;4.78;100.00
56681;BME280;42558;52.388;13.390;2023-04-20T04:45:31;101633.79;;;4.81;100.00
56681;BME280;42558;52.388;13.390;2023-04-20T04:48:01;101639.62;;;4.76;100.00
56681;BME280;42558;52.388;13.390;2023-04-20T04:50:31;101629.58;;;4.80;100.00
56681;BME280;42558;52.388;13.390;2023-04-20T04:53:02;101634.74;;;4.75;100.00
56681;BME280;42558;52.388;13.390;2023-04-20T04:55:33;101640.13;;;4.69;100.00
56681;BME280;42558;52.388;13.390;2023-04-20T04:58:03;101635.86;;;4.70;100.00
56681;BME280;42558;52.388;13.390;2023-04-20T05:00:32;101637.24;;;4.73;100.00
56681;BME280;42558;52.388;13.390;2023-04-20T05:03:02;101636.36;;;4.73;100.00
56681;BME280;42558;52.388;13.390;2023-04-20T05:05:31;101633.95;;;4.70;100.00
56681;BME280;42558;52.388;13.390;2023-04-20T05:07:59;101636.66;;;4.72;100.00
56681;BME280;42558;52.388;13.390;2023-04-20T05:10:28;101636.99;;;4.72;100.00
56681;BME280;42558;52.388;13.390;2023-04-20T05:12:56;101643.34;;;4.76;100.00
56681;BME280;42558;52.388;13.390;2023-04-20T05:15:28;101648.72;;;4.76;100.00
56681;BME280;42558;52.388;13.390;2023-04-20T05:17:56;101650.06;;;4.75;100.00
56681;BME280;42558;52.388;13.390;2023-04-20T05:20:24;101648.95;;;4.77;100.00
56681;BME280;42558;52.388;13.390;2023-04-20T05:22:53;101654.78;;;4.76;100.00
56681;BME280;42558;52.388;13.390;2023-04-20T05:25:21;101657.16;;;4.78;100.00
56681;BME280;42558;52.388;13.390;2023-04-20T05:27:50;101653.77;;;4.80;100.00
56681;BME280;42558;52.388;13.390;2023-04-20T05:30:18;101651.95;;;4.82;100.00
56681;BME280;42558;52.388;13.390;2023-04-20T05:32:50;101657.90;;;4.89;100.00
56681;BME280;42558;52.388;13.390;2023-04-20T05:35:21;101663.92;;;4.98;100.00
56681;BME280;42558;52.388;13.390;2023-04-20T05:37:51;101663.02;;;5.04;100.00
56681;BME280;42558;52.388;13.390;2023-04-20T05:40:21;101666.52;;;5.07;100.00
56681;BME280;42558;52.388;13.390;2023-04-20T05:42:50;101657.86;;;5.08;100.00
56681;BME280;42558;52.388;13.390;2023-04-20T05:45:20;101658.12;;;5.07;100.00
56681;BME280;42558;52.388;13.390;2023-04-20T05:47:55;101661.75;;;5.10;100.00
56681;BME280;42558;52.388;13.390;2023-04-20T05:50:26;101661.19;;;5.23;100.00
56681;BME280;42558;52.388;13.390;2023-04-20T05:52:56;101658.34;;;5.15;100.00
56681;BME280;42558;52.388;13.390;2023-04-20T05:55:25;101658.39;;;5.02;100.00
56681;BME280;42558;52.388;13.390;2023-04-20T05:57:56;101658.63;;;5.00;100.00
56681;BME280;42558;52.388;13.390;2023-04-20T06:00:26;101665.52;;;5.15;100.00
56681;BME280;42558;52.388;13.390;2023-04-20T06:02:56;101673.80;;;5.24;100.00
56681;BME280;42558;52.388;13.390;2023-04-20T06:05:26;101675.71;;;5.24;100.00
56681;BME280;42558;52.388;13.390;2023-04-20T06:07:56;101675.67;;;5.20;100.00
56681;BME280;42558;52.388;13.390;2023-04-20T06:10:26;101682.02;;;5.07;100.00
56681;BME280;42558;52.388;13.390;2023-04-20T06:13:00;101673.88;;;5.19;100.00
56681;BME280;42558;52.388;13.390;2023-04-20T06:15:30;101678.48;;;5.27;100.00
56681;BME280;42558;52.388;13.390;2023-04-20T06:18:01;101677.71;;;5.36;100.00
56681;BME280;42558;52.388;13.390;2023-04-20T06:20:30;101688.04;;;5.27;100.00
56681;BME280;42558;52.388;13.390;2023-04-20T06:23:00;101688.95;;;5.24;100.00
56681;BME280;42558;52.388;13.390;2023-04-20T06:25:30;101676.23;;;5.31;100.00
56681;BME280;42558;52.388;13.390;2023-04-20T06:28:00;101669.17;;;5.29;100.00
56681;BME280;42558;52.388;13.390;2023-04-20T06:30:30;101672.84;;;5.30;100.00
56681;BME280;42558;52.388;13.390;2023-04-20T06:33:02;101680.43;;;5.31;100.00
56681;BME280;42558;52.388;13.390;2023-04-20T06:35:32;101682.21;;;5.35;100.00
56681;BME280;42558;52.388;13.390;2023-04-20T06:38:01;101685.91;;;5.43;100.00
56681;BME280;42558;52.388;13.390;2023-04-20T06:40:31;101684.48;;;5.50;100.00
56681;BME280;42558;52.388;13.390;2023-04-20T06:43:01;101689.00;;;5.46;100.00
56681;BME280;42558;52.388;13.390;2023-04-20T06:45:31;101683.95;;;5.60;100.00
56681;BME280;42558;52.388;13.390;2023-04-20T06:48:02;101686.84;;;5.81;100.00
56681;BME280;42558;52.388;13.390;2023-04-20T06:50:33;101695.80;;;5.86;100.00
56681;BME280;42558;52.388;13.390;2023-04-20T06:53:02;101699.96;;;5.59;100.00
56681;BME280;42558;52.388;13.390;2023-04-20T06:55:32;101696.58;;;5.69;100.00
56681;BME280;42558;52.388;13.390;2023-04-20T06:58:02;101703.54;;;5.65;100.00
56681;BME280;42558;52.388;13.390;2023-04-20T07:00:31;101702.06;;;5.89;100.00
56681;BME280;42558;52.388;13.390;2023-04-20T07:02:59;101697.21;;;5.75;100.00
56681;BME280;42558;52.388;13.390;2023-04-20T07:05:28;101701.13;;;6.01;100.00
56681;BME280;42558;52.388;13.390;2023-04-20T07:07:56;101700.35;;;6.34;100.00
56681;BME280;42558;52.388;13.390;2023-04-20T07:10:24;101701.04;;;6.25;100.00
56681;BME280;42558;52.388;13.390;2023-04-20T07:12:53;101697.02;;;6.25;100.00
56681;BME280;42558;52.388;13.390;2023-04-20T07:15:21;101698.91;;;6.41;100.00
56681;BME280;42558;52.388;13.390;2023-04-20T07:17:50;101704.08;;;6.31;100.00
56681;BME280;42558;52.388;13.390;2023-04-20T07:20:18;101699.04;;;6.36;100.00
56681;BME280;42558;52.388;13.390;2023-04-20T07:22:46;101704.56;;;6.15;100.00
56681;BME280;42558;52.388;13.390;2023-04-20T07:25:15;101707.08;;;6.20;100.00
56681;BME280;42558;52.388;13.390;2023-04-20T07:27:43;101709.88;;;6.17;100.00
56681;BME280;42558;52.388;13.390;2023-04-20T07:30:13;101713.63;;;6.11;100.00
56681;BME280;42558;52.388;13.390;2023-04-20T07:32:40;101714.16;;;6.22;100.00
56681;BME280;42558;52.388;13.390;2023-04-20T07:35:10;101706.20;;;6.20;100.00
56681;BME280;42558;52.388;13.390;2023-04-20T07:37:37;101702.23;;;6.33;100.00
56681;BME280;42558;52.388;13.390;2023-04-20T07:40:07;101704.50;;;6.51;100.00
56681;BME280;42558;52.388;13.390;2023-04-20T07:42:35;101712.11;;;6.66;100.00
56681;BME280;42558;52.388;13.390;2023-04-20T07:45:07;101717.75;;;6.82;100.00
56681;BME280;42558;52.388;13.390;2023-04-20T07:47:35;101716.64;;;6.46;100.00
56681;BME280;42558;52.388;13.390;2023-04-20T07:50:04;101718.47;;;6.29;100.00
56681;BME280;42558;52.388;13.390;2023-04-20T07:52:34;101716.15;;;6.35;100.00
56681;BME280;42558;52.388;13.390;2023-04-20T07:55:06;101718.42;;;6.51;100.00
56681;BME280;42558;52.388;13.390;2023-04-20T07:57:36;101723.70;;;6.44;100.00
56681;BME280;42558;52.388;13.390;2023-04-20T08:00:07;101726.73;;;6.45;100.00
56681;BME280;42558;52.388;13.390;2023-04-20T08:02:38;101723.02;;;6.63;100.00
56681;BME280;42558;52.388;13.390;2023-04-20T08:05:08;101721.71;;;6.85;100.00
56681;BME280;42558;52.388;13.390;2023-04-20T08:07:39;101725.81;;;7.03;100.00
56681;BME280;42558;52.388;13.390;2023-04-20T08:10:09;101721.73;;;7.01;100.00
56681;BME280;42558;52.388;13.390;2023-04-20T08:12:39;101720.02;;;7.02;100.00
56681;BME280;42558;52.388;13.390;2023-04-20T08:15:10;101721.66;;;6.88;100.00
56681;BME280;42558;52.388;13.390;2023-04-20T08:17:40;101726.03;;;7.16;100.00
56681;BME280;42558;52.388;13.390;2023-04-20T08:20:10;101723.70;;;7.44;100.00
56681;BME280;42558;52.388;13.390;2023-04-20T08:22:39;101723.38;;;7.61;99.99
56681;BME280;42558;52.388;13.390;2023-04-20T08:25:10;101716.05;;;7.79;100.00
56681;BME280;42558;52.388;13.390;2023-04-20T08:27:39;101722.48;;;8.35;99.20
56681;BME280;42558;52.388;13.390;2023-04-20T08:30:10;101725.63;;;8.39;96.58
56681;BME280;42558;52.388;13.390;2023-04-20T08:32:40;101730.73;;;8.40;97.34
56681;BME280;42558;52.388;13.390;2023-04-20T08:35:10;101727.46;;;7.88;96.31
56681;BME280;42558;52.388;13.390;2023-04-20T08:37:40;101733.41;;;7.71;98.32
56681;BME280;42558;52.388;13.390;2023-04-20T08:40:11;101733.26;;;7.67;98.84
56681;BME280;42558;52.388;13.390;2023-04-20T08:42:41;101738.00;;;7.68;99.26
56681;BME280;42558;52.388;13.390;2023-04-20T08:45:11;101729.15;;;7.74;99.20
56681;BME280;42558;52.388;13.390;2023-04-20T08:47:43;101726.64;;;7.68;99.68
56681;BME280;42558;52.388;13.390;2023-04-20T08:50:15;101733.95;;;7.59;99.87
56681;BME280;42558;52.388;13.390;2023-04-20T08:52:45;101740.86;;;7.48;99.95
56681;BME280;42558;52.388;13.390;2023-04-20T08:55:17;101733.10;;;7.51;100.00
56681;BME280;42558;52.388;13.390;2023-04-20T08:57:48;101730.67;;;7.47;100.00
56681;BME280;42558;52.388;13.390;2023-04-20T09:00:20;101728.93;;;7.60;100.00
56681;BME280;42558;52.388;13.390;2023-04-20T09:02:54;101733.48;;;7.43;100.00
56681;BME280;42558;52.388;13.390;2023-04-20T09:05:30;101734.04;;;7.31;100.00
56681;BME280;42558;52.388;13.390;2023-04-20T09:08:00;101739.12;;;7.35;100.00
56681;BME280;42558;52.388;13.390;2023-04-20T09:10:42;101731.75;;;7.44;100.00
56681;BME280;42558;52.388;13.390;2023-04-20T09:13:22;101730.70;;;7.23;100.00
56681;BME280;42558;52.388;13.390;2023-04-20T09:15:52;101734.18;;;7.39;100.00
56681;BME280;42558;52.388;13.390;2023-04-20T09:18:22;101736.45;;;7.47;100.00
56681;BME280;42558;52.388;13.390;2023-04-20T09:20:53;101738.15;;;7.55;100.00
56681;BME280;42558;52.388;13.390;2023-04-20T09:23:23;101735.23;;;7.35;100.00
56681;BME280;42558;52.388;13.390;2023-04-20T09:25:52;101731.33;;;7.29;100.00
56681;BME280;42558;52.388;13.390;2023-04-20T09:28:22;101727.94;;;7.53;100.00
56681;BME280;42558;52.388;13.390;2023-04-20T09:30:52;101727.16;;;7.56;100.00
56681;BME280;42558;52.388;13.390;2023-04-20T09:33:27;101724.35;;;7.51;100.00
56681;BME280;42558;52.388;13.390;2023-04-20T09:36:04;101727.55;;;7.44;100.00
56681;BME280;42558;52.388;13.390;2023-04-20T09:38:35;101724.61;;;7.45;100.00
56681;BME280;42558;52.388;13.390;2023-04-20T09:41:05;101715.40;;;7.67;100.00
56681;BME280;42558;52.388;13.390;2023-04-20T09:43:36;101715.36;;;7.49;100.00
56681;BME280;42558;52.388;13.390;2023-04-20T09:46:06;101709.19;;;7.57;100.00
56681;BME280;42558;52.388;13.390;2023-04-20T09:48:37;101703.08;;;7.78;100.00
56681;BME280;42558;52.388;13.390;2023-04-20T09:51:06;101700.46;;;8.19;100.00
56681;BME280;42558;52.388;13.390;2023-04-20T09:53:37;101697.66;;;8.51;100.00
56681;BME280;42558;52.388;13.390;2023-04-20T09:56:09;101700.83;;;8.65;100.00
56681;BME280;42558;52.388;13.390;2023-04-20T09:58:37;101703.63;;;8.65;100.00
56681;BME280;42558;52.388;13.390;2023-04-20T10:01:09;101704.73;;;8.81;100.00
56681;BME280;42558;52.388;13.390;2023-04-20T10:03:41;101704.54;;;9.11;99.92
56681;BME280;42558;52.388;13.390;2023-04-20T10:06:22;101702.95;;;9.16;100.00
56681;BME280;42558;52.388;13.390;2023-04-20T10:08:54;101701.58;;;9.12;99.58
56681;BME280;42558;52.388;13.390;2023-04-20T10:11:33;101696.84;;;9.26;99.05
56681;BME280;42558;52.388;13.390;2023-04-20T10:14:24;101698.21;;;9.15;98.28
56681;BME280;42558;52.388;13.390;2023-04-20T10:17:07;101701.64;;;9.13;99.59
56681;BME280;42558;52.388;13.390;2023-04-20T10:19:43;101700.48;;;9.20;99.62
56681;BME280;42558;52.388;13.390;2023-04-20T10:22:27;101705.45;;;9.42;98.97
56681;BME280;42558;52.388;13.390;2023-04-20T10:25:15;101707.83;;;9.19;95.45
56681;BME280;42558;52.388;13.390;2023-04-20T10:28:01;101709.56;;;9.24;97.50
56681;BME280;42558;52.388;13.390;2023-04-20T10:30:48;101707.08;;;9.59;96.61
56681;BME280;42558;52.388;13.390;2023-04-20T10:33:18;101707.14;;;9.83;95.15
56681;BME280;42558;52.388;13.390;2023-04-20T10:35:54;101702.05;;;9.78;93.80
56681;BME280;42558;52.388;13.390;2023-04-20T10:38:34;101698.17;;;9.61;92.40
56681;BME280;42558;52.388;13.390;2023-04-20T10:41:10;101694.83;;;9.61;96.10
56681;BME280;42558;52.388;13.390;2023-04-20T10:43:38;101691.92;;;9.91;94.23
56681;BME280;42558;52.388;13.390;2023-04-20T10:48:55;101677.58;;;10.04;91.93
56681;BME280;42558;52.388;13.390;2023-04-20T10:51:24;101673.70;;;10.27;92.71
56681;BME280;42558;52.388;13.390;2023-04-20T10:54:06;101673.91;;;10.05;90.37
56681;BME280;42558;52.388;13.390;2023-04-20T10:56:44;101673.18;;;10.04;91.85
56681;BME280;42558;52.388;13.390;2023-04-20T10:59:18;101670.92;;;10.28;91.33
56681;BME280;42558;52.388;13.390;2023-04-20T11:01:50;101674.92;;;10.26;88.49
56681;BME280;42558;52.388;13.390;2023-04-20T11:04:31;101675.77;;;10.02;90.83
56681;BME280;42558;52.388;13.390;2023-04-20T11:07:09;101670.48;;;10.42;90.66
56681;BME280;42558;52.388;13.390;2023-04-20T11:09:41;101668.60;;;10.44;88.63
56681;BME280;42558;52.388;13.390;2023-04-20T11:12:16;101667.27;;;10.23;91.08
56681;BME280;42558;52.388;13.390;2023-04-20T11:14:55;101677.05;;;9.93;89.98
56681;BME280;42558;52.388;13.390;2023-04-20T11:17:33;101677.34;;;9.96;92.49
56681;BME280;42558;52.388;13.390;2023-04-20T11:20:12;101672.62;;;10.09;91.08
56681;BME280;42558;52.388;13.390;2023-04-20T11:22:55;101673.23;;;10.17;90.07
56681;BME280;42558;52.388;13.390;2023-04-20T11:25:27;101675.24;;;10.31;90.84
56681;BME280;42558;52.388;13.390;2023-04-20T11:28:07;101676.33;;;10.32;92.47
56681;BME280;42558;52.388;13.390;2023-04-20T11:30:42;101676.80;;;10.36;89.76
56681;BME280;42558;52.388;13.390;2023-04-20T11:33:12;101675.58;;;10.36;91.03
56681;BME280;42558;52.388;13.390;2023-04-20T11:35:43;101673.84;;;10.26;89.80
56681;BME280;42558;52.388;13.390;2023-04-20T11:38:12;101668.84;;;10.28;91.31
56681;BME280;42558;52.388;13.390;2023-04-20T11:40:42;101666.50;;;10.26;90.46
56681;BME280;42558;52.388;13.390;2023-04-20T11:43:12;101661.95;;;10.33;91.26
56681;BME280;42558;52.388;13.390;2023-04-20T11:45:42;101653.08;;;10.36;90.86
56681;BME280;42558;52.388;13.390;2023-04-20T11:48:12;101648.57;;;10.38;90.76
56681;BME280;42558;52.388;13.390;2023-04-20T11:50:42;101642.65;;;10.53;90.65
56681;BME280;42558;52.388;13.390;2023-04-20T11:53:12;101642.17;;;10.74;88.24
56681;BME280;42558;52.388;13.390;2023-04-20T11:55:43;101642.05;;;10.56;89.37
56681;BME280;42558;52.388;13.390;2023-04-20T11:58:13;101638.68;;;10.62;89.04
56681;BME280;42558;52.388;13.390;2023-04-20T12:00:43;101636.48;;;10.52;89.05
56681;BME280;42558;52.388;13.390;2023-04-20T12:03:12;101635.13;;;10.67;89.22
56681;BME280;42558;52.388;13.390;2023-04-20T12:05:42;101630.98;;;11.03;89.21
56681;BME280;42558;52.388;13.390;2023-04-20T12:08:12;101622.83;;;11.36;87.00
56681;BME280;42558;52.388;13.390;2023-04-20T12:10:42;101623.41;;;11.61;86.75
56681;BME280;42558;52.388;13.390;2023-04-20T12:13:12;101618.41;;;11.43;86.65
56681;BME280;42558;52.388;13.390;2023-04-20T12:15:43;101618.86;;;11.54;85.71
56681;BME280;42558;52.388;13.390;2023-04-20T12:18:13;101615.44;;;11.97;86.17
56681;BME280;42558;52.388;13.390;2023-04-20T12:20:43;101611.36;;;12.85;83.55
56681;BME280;42558;52.388;13.390;2023-04-20T12:23:15;101609.90;;;12.72;80.93
56681;BME280;42558;52.388;13.390;2023-04-20T12:25:43;101609.41;;;12.55;83.35
56681;BME280;42558;52.388;13.390;2023-04-20T12:28:12;101605.67;;;12.45;83.07
56681;BME280;42558;52.388;13.390;2023-04-20T12:30:40;101609.59;;;12.74;82.16
56681;BME280;42558;52.388;13.390;2023-04-20T12:33:09;101606.96;;;12.21;82.21
56681;BME280;42558;52.388;13.390;2023-04-20T12:35:40;101606.29;;;12.14;82.68
56681;BME280;42558;52.388;13.390;2023-04-20T12:38:08;101600.52;;;12.25;83.02
56681;BME280;42558;52.388;13.390;2023-04-20T12:40:37;101600.35;;;12.16;83.47
56681;BME280;42558;52.388;13.390;2023-04-20T12:43:04;101601.31;;;12.12;82.53
56681;BME280;42558;52.388;13.390;2023-04-20T12:45:34;101593.50;;;12.26;83.18
56681;BME280;42558;52.388;13.390;2023-04-20T12:48:04;101590.20;;;12.56;82.98
56681;BME280;42558;52.388;13.390;2023-04-20T12:50:35;101581.21;;;12.76;80.80
56681;BME280;42558;52.388;13.390;2023-04-20T12:53:05;101580.91;;;12.50;80.66
56681;BME280;42558;52.388;13.390;2023-04-20T12:55:35;101576.16;;;12.41;80.62
56681;BME280;42558;52.388;13.390;2023-04-20T12:58:05;101574.95;;;12.24;81.41
56681;BME280;42558;52.388;13.390;2023-04-20T13:00:34;101571.33;;;12.38;81.52
56681;BME280;42558;52.388;13.390;2023-04-20T13:03:04;101565.23;;;12.80;81.60
56681;BME280;42558;52.388;13.390;2023-04-20T13:05:34;101561.55;;;13.02;80.07
56681;BME280;42558;52.388;13.390;2023-04-20T13:08:05;101562.73;;;12.99;79.61
56681;BME280;42558;52.388;13.390;2023-04-20T13:10:37;101558.70;;;12.90;79.52